sensor_id;sensor_type;location;lat;lon;timestamp;P1;durP1;ratioP1;P2;durP2;ratioP2
43118;SDS011;28729;49.838;8.650;2023-07-30T00:00:53;6.43;;;2.83;;
43118;SDS011;28729;49.838;8.650;2023-07-30T00:04:54;8.80;;;2.67;;
43118;SDS011;28729;49.838;8.650;2023-07-30T00:08:57;4.10;;;2.60;;
43118;SDS011;28729;49.838;8.650;2023-07-30T00:12:58;8.07;;;2.30;;
43118;SDS011;28729;49.838;8.650;2023-07-30T00:17:00;5.35;;;2.38;;
43118;SDS011;28729;49.838;8.650;2023-07-30T00:21:03;5.50;;;2.53;;
43118;SDS011;28729;49.838;8.650;2023-07-30T00:25:05;5.07;;;2.80;;
43118;SDS011;28729;49.838;8.650;2023-07-30T00:29:07;7.70;;;2.10;;
43118;SDS011;28729;49.838;8.650;2023-07-30T00:33:08;3.10;;;1.70;;
43118;SDS011;28729;49.838;8.650;2023-07-30T00:37:10;4.55;;;2.28;;
43118;SDS011;28729;49.838;8.650;2023-07-30T00:41:12;3.65;;;1.90;;
43118;SDS011;28729;49.838;8.650;2023-07-30T00:45:14;4.57;;;1.70;;
43118;SDS011;28729;49.838;8.650;2023-07-30T00:49:16;3.53;;;2.10;;
43118;SDS011;28729;49.838;8.650;2023-07-30T00:57:23;4.07;;;2.30;;
43118;SDS011;28729;49.838;8.650;2023-07-30T01:01:25;4.23;;;2.23;;
43118;SDS011;28729;49.838;8.650;2023-07-30T01:05:27;4.07;;;2.80;;
43118;SDS011;28729;49.838;8.650;2023-07-30T01:09:29;6.97;;;3.20;;
43118;SDS011;28729;49.838;8.650;2023-07-30T01:13:31;8.80;;;2.90;;
43118;SDS011;28729;49.838;8.650;2023-07-30T01:17:35;7.97;;;3.13;;
43118;SDS011;28729;49.838;8.650;2023-07-30T01:21:37;5.47;;;3.25;;
43118;SDS011;28729;49.838;8.650;2023-07-30T01:25:39;7.70;;;2.90;;
43118;SDS011;28729;49.838;8.650;2023-07-30T01:29:45;11.38;;;3.45;;
43118;SDS011;28729;49.838;8.650;2023-07-30T01:33:54;6.95;;;2.83;;
43118;SDS011;28729;49.838;8.650;2023-07-30T01:37:57;3.90;;;2.67;;
43118;SDS011;28729;49.838;8.650;2023-07-30T01:41:59;5.03;;;2.55;;
43118;SDS011;28729;49.838;8.650;2023-07-30T01:46:01;3.43;;;2.13;;
43118;SDS011;28729;49.838;8.650;2023-07-30T01:50:03;5.03;;;2.72;;
43118;SDS011;28729;49.838;8.650;2023-07-30T01:54:05;3.13;;;2.00;;
43118;SDS011;28729;49.838;8.650;2023-07-30T01:58:07;5.65;;;2.58;;
43118;SDS011;28729;49.838;8.650;2023-07-30T02:02:09;5.57;;;2.65;;
43118;SDS011;28729;49.838;8.650;2023-07-30T02:06:10;3.60;;;2.03;;
43118;SDS011;28729;49.838;8.650;2023-07-30T02:10:13;2.90;;;1.88;;
43118;SDS011;28729;49.838;8.650;2023-07-30T02:14:15;4.35;;;1.98;;
43118;SDS011;28729;49.838;8.650;2023-07-30T02:18:17;3.58;;;2.22;;
43118;SDS011;28729;49.838;8.650;2023-07-30T02:22:18;2.90;;;1.70;;
43118;SDS011;28729;49.838;8.650;2023-07-30T02:26:20;6.13;;;2.42;;
43118;SDS011;28729;49.838;8.650;2023-07-30T02:30:22;3.67;;;1.98;;
43118;SDS011;28729;49.838;8.650;2023-07-30T02:34:24;3.15;;;1.75;;
43118;SDS011;28729;49.838;8.650;2023-07-30T02:38:25;3.75;;;1.98;;
43118;SDS011;28729;49.838;8.650;2023-07-30T02:42:27;4.57;;;2.00;;
43118;SDS011;28729;49.838;8.650;2023-07-30T02:46:29;4.53;;;2.20;;
43118;SDS011;28729;49.838;8.650;2023-07-30T02:50:31;4.60;;;2.33;;
43118;SDS011;28729;49.838;8.650;2023-07-30T02:54:32;6.28;;;2.22;;
43118;SDS011;28729;49.838;8.650;2023-07-30T02:58:34;4.30;;;1.60;;
43118;SDS011;28729;49.838;8.650;2023-07-30T03:02:36;2.80;;;1.80;;
43118;SDS011;28729;49.838;8.650;2023-07-30T03:06:38;4.88;;;1.88;;
43118;SDS011;28729;49.838;8.650;2023-07-30T03:10:40;3.77;;;2.13;;
43118;SDS011;28729;49.838;8.650;2023-07-30T03:14:42;2.80;;;1.57;;
43118;SDS011;28729;49.838;8.650;2023-07-30T03:18:44;3.90;;;1.98;;
43118;SDS011;28729;49.838;8.650;2023-07-30T03:22:45;4.13;;;2.20;;
43118;SDS011;28729;49.838;8.650;2023-07-30T03:26:47;7.47;;;2.33;;
43118;SDS011;28729;49.838;8.650;2023-07-30T03:30:49;4.43;;;1.70;;
43118;SDS011;28729;49.838;8.650;2023-07-30T03:34:51;4.00;;;2.15;;
43118;SDS011;28729;49.838;8.650;2023-07-30T03:38:54;3.53;;;1.88;;
43118;SDS011;28729;49.838;8.650;2023-07-30T03:42:56;3.05;;;1.95;;
43118;SDS011;28729;49.838;8.650;2023-07-30T03:46:57;6.03;;;2.10;;
43118;SDS011;28729;49.838;8.650;2023-07-30T03:50:59;4.97;;;2.25;;
43118;SDS011;28729;49.838;8.650;2023-07-30T03:55:01;4.67;;;2.37;;
43118;SDS011;28729;49.838;8.650;2023-07-30T03:59:03;4.05;;;2.25;;
43118;SDS011;28729;49.838;8.650;2023-07-30T04:03:05;5.88;;;2.05;;
43118;SDS011;28729;49.838;8.650;2023-07-30T04:07:07;4.37;;;2.23;;
43118;SDS011;28729;49.838;8.650;2023-07-30T04:11:08;6.82;;;2.60;;
43118;SDS011;28729;49.838;8.650;2023-07-30T04:15:10;5.18;;;2.50;;
43118;SDS011;28729;49.838;8.650;2023-07-30T04:19:12;5.22;;;2.30;;
43118;SDS011;28729;49.838;8.650;2023-07-30T04:23:15;3.58;;;2.30;;
43118;SDS011;28729;49.838;8.650;2023-07-30T04:27:17;4.78;;;2.53;;
43118;SDS011;28729;49.838;8.650;2023-07-30T04:31:19;4.28;;;2.22;;
43118;SDS011;28729;49.838;8.650;2023-07-30T04:35:21;4.47;;;2.78;;
43118;SDS011;28729;49.838;8.650;2023-07-30T04:39:23;4.40;;;2.45;;
43118;SDS011;28729;49.838;8.650;2023-07-30T04:43:25;3.73;;;2.33;;
43118;SDS011;28729;49.838;8.650;2023-07-30T04:47:30;4.72;;;2.22;;
43118;SDS011;28729;49.838;8.650;2023-07-30T04:51:32;5.47;;;2.73;;
43118;SDS011;28729;49.838;8.650;2023-07-30T04:55:34;4.38;;;2.83;;
43118;SDS011;28729;49.838;8.650;2023-07-30T04:59:36;5.68;;;3.10;;
43118;SDS011;28729;49.838;8.650;2023-07-30T05:03:38;6.55;;;3.83;;
43118;SDS011;28729;49.838;8.650;2023-07-30T05:07:40;7.07;;;3.20;;
43118;SDS011;28729;49.838;8.650;2023-07-30T05:11:41;5.32;;;3.25;;
43118;SDS011;28729;49.838;8.650;2023-07-30T05:15:43;6.68;;;3.05;;
43118;SDS011;28729;49.838;8.650;2023-07-30T05:19:45;6.18;;;2.97;;
43118;SDS011;28729;49.838;8.650;2023-07-30T05:23:46;3.95;;;2.60;;
43118;SDS011;28729;49.838;8.650;2023-07-30T05:27:48;4.45;;;2.63;;
43118;SDS011;28729;49.838;8.650;2023-07-30T05:31:50;5.10;;;2.95;;
43118;SDS011;28729;49.838;8.650;2023-07-30T05:35:52;4.25;;;2.67;;
43118;SDS011;28729;49.838;8.650;2023-07-30T05:39:53;4.03;;;2.40;;
43118;SDS011;28729;49.838;8.650;2023-07-30T05:43:55;5.78;;;2.85;;
43118;SDS011;28729;49.838;8.650;2023-07-30T05:47:57;6.05;;;2.92;;
43118;SDS011;28729;49.838;8.650;2023-07-30T05:51:59;5.87;;;2.33;;
43118;SDS011;28729;49.838;8.650;2023-07-30T05:56:00;5.05;;;3.20;;
43118;SDS011;28729;49.838;8.650;2023-07-30T06:00:02;7.65;;;3.33;;
43118;SDS011;28729;49.838;8.650;2023-07-30T06:04:12;4.55;;;2.78;;
43118;SDS011;28729;49.838;8.650;2023-07-30T06:08:14;3.92;;;2.58;;
43118;SDS011;28729;49.838;8.650;2023-07-30T06:12:16;5.35;;;2.22;;
43118;SDS011;28729;49.838;8.650;2023-07-30T06:16:18;4.88;;;2.33;;
43118;SDS011;28729;49.838;8.650;2023-07-30T06:20:21;3.78;;;2.08;;
43118;SDS011;28729;49.838;8.650;2023-07-30T06:24:23;5.07;;;2.13;;
43118;SDS011;28729;49.838;8.650;2023-07-30T06:28:24;7.78;;;2.60;;
43118;SDS011;28729;49.838;8.650;2023-07-30T06:32:26;4.40;;;2.88;;
43118;SDS011;28729;49.838;8.650;2023-07-30T06:36:28;5.28;;;2.38;;
43118;SDS011;28729;49.838;8.650;2023-07-30T06:40:30;4.25;;;2.20;;
43118;SDS011;28729;49.838;8.650;2023-07-30T06:44:32;4.18;;;2.30;;
43118;SDS011;28729;49.838;8.650;2023-07-30T06:48:33;3.53;;;2.05;;
43118;SDS011;28729;49.838;8.650;2023-07-30T06:52:35;4.97;;;2.77;;
43118;SDS011;28729;49.838;8.650;2023-07-30T06:56:37;3.75;;;2.53;;
43118;SDS011;28729;49.838;8.650;2023-07-30T07:00:39;5.03;;;2.42;;
43118;SDS011;28729;49.838;8.650;2023-07-30T07:04:44;4.20;;;2.65;;
43118;SDS011;28729;49.838;8.650;2023-07-30T07:08:46;3.90;;;2.57;;
43118;SDS011;28729;49.838;8.650;2023-07-30T07:12:48;5.47;;;2.67;;
43118;SDS011;28729;49.838;8.650;2023-07-30T07:16:50;4.40;;;2.60;;
43118;SDS011;28729;49.838;8.650;2023-07-30T07:20:51;4.47;;;2.77;;
43118;SDS011;28729;49.838;8.650;2023-07-30T07:24:53;3.70;;;2.70;;
43118;SDS011;28729;49.838;8.650;2023-07-30T07:28:55;5.00;;;3.07;;
43118;SDS011;28729;49.838;8.650;2023-07-30T07:32:58;9.13;;;3.80;;
43118;SDS011;28729;49.838;8.650;2023-07-30T07:37:01;5.43;;;3.75;;
43118;SDS011;28729;49.838;8.650;2023-07-30T07:41:03;4.30;;;2.70;;
43118;SDS011;28729;49.838;8.650;2023-07-30T07:45:06;35.53;;;6.50;;
43118;SDS011;28729;49.838;8.650;2023-07-30T07:49:08;12.57;;;4.15;;
43118;SDS011;28729;49.838;8.650;2023-07-30T07:53:10;6.77;;;3.23;;
43118;SDS011;28729;49.838;8.650;2023-07-30T07:57:12;6.30;;;3.55;;
43118;SDS011;28729;49.838;8.650;2023-07-30T08:01:14;5.03;;;2.50;;
43118;SDS011;28729;49.838;8.650;2023-07-30T08:05:16;6.97;;;2.78;;
43118;SDS011;28729;49.838;8.650;2023-07-30T08:09:17;4.97;;;2.63;;
43118;SDS011;28729;49.838;8.650;2023-07-30T08:13:19;6.10;;;2.50;;
43118;SDS011;28729;49.838;8.650;2023-07-30T08:17:34;3.95;;;2.38;;
43118;SDS011;28729;49.838;8.650;2023-07-30T08:21:35;6.18;;;2.13;;
43118;SDS011;28729;49.838;8.650;2023-07-30T08:25:38;6.25;;;2.58;;
43118;SDS011;28729;49.838;8.650;2023-07-30T08:29:40;4.18;;;2.00;;
43118;SDS011;28729;49.838;8.650;2023-07-30T08:33:42;3.50;;;2.10;;
43118;SDS011;28729;49.838;8.650;2023-07-30T08:37:44;3.55;;;2.53;;
43118;SDS011;28729;49.838;8.650;2023-07-30T08:41:46;3.55;;;2.20;;
43118;SDS011;28729;49.838;8.650;2023-07-30T08:45:48;3.13;;;2.10;;
43118;SDS011;28729;49.838;8.650;2023-07-30T08:49:50;3.17;;;2.15;;
43118;SDS011;28729;49.838;8.650;2023-07-30T08:53:52;4.47;;;2.17;;
43118;SDS011;28729;49.838;8.650;2023-07-30T08:57:53;3.60;;;2.43;;
43118;SDS011;28729;49.838;8.650;2023-07-30T09:01:56;3.67;;;2.65;;
43118;SDS011;28729;49.838;8.650;2023-07-30T09:06:00;4.25;;;3.13;;
43118;SDS011;28729;49.838;8.650;2023-07-30T09:10:01;4.57;;;3.33;;
43118;SDS011;28729;49.838;8.650;2023-07-30T09:18:08;7.53;;;3.17;;
43118;SDS011;28729;49.838;8.650;2023-07-30T09:22:10;5.77;;;2.90;;
43118;SDS011;28729;49.838;8.650;2023-07-30T09:26:12;4.97;;;2.53;;
43118;SDS011;28729;49.838;8.650;2023-07-30T09:34:32;7.53;;;3.30;;
43118;SDS011;28729;49.838;8.650;2023-07-30T09:38:38;3.63;;;2.80;;
43118;SDS011;28729;49.838;8.650;2023-07-30T09:42:45;0.95;;;0.75;;
43118;SDS011;28729;49.838;8.650;2023-07-30T09:46:51;1.17;;;0.50;;
43118;SDS011;28729;49.838;8.650;2023-07-30T09:50:53;1.08;;;0.50;;
43118;SDS011;28729;49.838;8.650;2023-07-30T10:03:00;1.00;;;0.50;;
43118;SDS011;28729;49.838;8.650;2023-07-30T10:07:04;1.23;;;0.63;;
43118;SDS011;28729;49.838;8.650;2023-07-30T10:11:10;0.93;;;0.55;;
43118;SDS011;28729;49.838;8.650;2023-07-30T10:15:13;0.40;;;0.32;;
43118;SDS011;28729;49.838;8.650;2023-07-30T10:19:15;0.50;;;0.40;;
43118;SDS011;28729;49.838;8.650;2023-07-30T10:27:22;0.93;;;0.52;;
43118;SDS011;28729;49.838;8.650;2023-07-30T10:31:29;1.40;;;0.60;;
43118;SDS011;28729;49.838;8.650;2023-07-30T10:35:41;0.82;;;0.52;;
43118;SDS011;28729;49.838;8.650;2023-07-30T10:39:49;2.67;;;0.50;;
43118;SDS011;28729;49.838;8.650;2023-07-30T10:43:51;2.85;;;0.90;;
43118;SDS011;28729;49.838;8.650;2023-07-30T10:48:03;2.90;;;1.05;;
43118;SDS011;28729;49.838;8.650;2023-07-30T10:52:05;1.27;;;0.60;;
43118;SDS011;28729;49.838;8.650;2023-07-30T10:56:08;1.30;;;0.63;;
43118;SDS011;28729;49.838;8.650;2023-07-30T11:04:20;1.45;;;0.60;;
43118;SDS011;28729;49.838;8.650;2023-07-30T11:12:35;8.45;;;1.02;;
43118;SDS011;28729;49.838;8.650;2023-07-30T11:16:37;5.23;;;1.10;;
43118;SDS011;28729;49.838;8.650;2023-07-30T11:20:41;4.22;;;1.13;;
43118;SDS011;28729;49.838;8.650;2023-07-30T11:24:42;3.38;;;1.20;;
43118;SDS011;28729;49.838;8.650;2023-07-30T11:28:45;5.88;;;1.17;;
43118;SDS011;28729;49.838;8.650;2023-07-30T11:32:47;6.35;;;1.23;;
43118;SDS011;28729;49.838;8.650;2023-07-30T11:36:49;5.68;;;1.30;;
43118;SDS011;28729;49.838;8.650;2023-07-30T11:40:54;2.08;;;0.80;;
43118;SDS011;28729;49.838;8.650;2023-07-30T11:45:16;2.08;;;1.10;;
43118;SDS011;28729;49.838;8.650;2023-07-30T11:49:24;5.88;;;1.30;;
43118;SDS011;28729;49.838;8.650;2023-07-30T11:57:52;3.50;;;1.08;;
43118;SDS011;28729;49.838;8.650;2023-07-30T12:01:55;5.72;;;1.83;;
43118;SDS011;28729;49.838;8.650;2023-07-30T12:05:57;3.17;;;1.20;;
43118;SDS011;28729;49.838;8.650;2023-07-30T12:10:08;3.33;;;1.40;;
43118;SDS011;28729;49.838;8.650;2023-07-30T12:18:13;5.85;;;1.15;;
43118;SDS011;28729;49.838;8.650;2023-07-30T12:22:15;4.70;;;1.13;;
43118;SDS011;28729;49.838;8.650;2023-07-30T12:26:17;7.57;;;1.60;;
43118;SDS011;28729;49.838;8.650;2023-07-30T12:30:19;4.60;;;1.33;;
43118;SDS011;28729;49.838;8.650;2023-07-30T12:34:21;2.63;;;1.00;;
43118;SDS011;28729;49.838;8.650;2023-07-30T12:38:24;3.53;;;1.15;;
43118;SDS011;28729;49.838;8.650;2023-07-30T12:42:26;4.68;;;1.20;;
43118;SDS011;28729;49.838;8.650;2023-07-30T12:46:28;5.22;;;1.80;;
43118;SDS011;28729;49.838;8.650;2023-07-30T12:50:31;5.30;;;1.58;;
43118;SDS011;28729;49.838;8.650;2023-07-30T12:54:33;5.37;;;1.43;;
43118;SDS011;28729;49.838;8.650;2023-07-30T12:58:35;3.53;;;1.20;;
43118;SDS011;28729;49.838;8.650;2023-07-30T13:02:37;4.57;;;1.40;;
43118;SDS011;28729;49.838;8.650;2023-07-30T13:06:39;3.72;;;1.30;;
43118;SDS011;28729;49.838;8.650;2023-07-30T13:10:40;6.47;;;1.70;;
43118;SDS011;28729;49.838;8.650;2023-07-30T13:14:42;5.67;;;1.20;;
43118;SDS011;28729;49.838;8.650;2023-07-30T13:18:44;2.13;;;1.10;;
43118;SDS011;28729;49.838;8.650;2023-07-30T13:22:46;4.50;;;1.27;;
43118;SDS011;28729;49.838;8.650;2023-07-30T13:26:48;1.45;;;0.82;;
43118;SDS011;28729;49.838;8.650;2023-07-30T13:30:49;4.77;;;1.33;;
43118;SDS011;28729;49.838;8.650;2023-07-30T13:34:52;5.68;;;1.40;;
43118;SDS011;28729;49.838;8.650;2023-07-30T13:38:54;4.35;;;1.27;;
43118;SDS011;28729;49.838;8.650;2023-07-30T13:42:56;2.27;;;1.00;;
43118;SDS011;28729;49.838;8.650;2023-07-30T13:51:00;2.90;;;1.20;;
43118;SDS011;28729;49.838;8.650;2023-07-30T13:59:04;4.83;;;1.57;;
43118;SDS011;28729;49.838;8.650;2023-07-30T14:03:06;4.72;;;1.40;;
43118;SDS011;28729;49.838;8.650;2023-07-30T14:07:11;4.57;;;1.40;;
43118;SDS011;28729;49.838;8.650;2023-07-30T14:11:12;3.42;;;1.10;;
43118;SDS011;28729;49.838;8.650;2023-07-30T14:15:16;4.70;;;1.58;;
43118;SDS011;28729;49.838;8.650;2023-07-30T14:19:18;4.05;;;1.33;;
43118;SDS011;28729;49.838;8.650;2023-07-30T14:23:20;2.58;;;1.10;;
43118;SDS011;28729;49.838;8.650;2023-07-30T14:27:22;3.33;;;1.23;;
43118;SDS011;28729;49.838;8.650;2023-07-30T14:31:26;4.03;;;1.00;;
43118;SDS011;28729;49.838;8.650;2023-07-30T14:39:30;5.72;;;1.08;;
43118;SDS011;28729;49.838;8.650;2023-07-30T14:43:32;4.32;;;1.45;;
43118;SDS011;28729;49.838;8.650;2023-07-30T14:47:33;7.97;;;1.60;;
43118;SDS011;28729;49.838;8.650;2023-07-30T14:51:36;4.18;;;1.23;;
43118;SDS011;28729;49.838;8.650;2023-07-30T14:55:38;5.22;;;1.65;;
43118;SDS011;28729;49.838;8.650;2023-07-30T14:59:40;5.07;;;1.45;;
43118;SDS011;28729;49.838;8.650;2023-07-30T15:03:41;2.78;;;0.93;;
43118;SDS011;28729;49.838;8.650;2023-07-30T15:07:43;6.55;;;1.20;;
43118;SDS011;28729;49.838;8.650;2023-07-30T15:11:45;4.83;;;1.43;;
43118;SDS011;28729;49.838;8.650;2023-07-30T15:15:47;4.50;;;1.40;;
43118;SDS011;28729;49.838;8.650;2023-07-30T15:19:49;6.00;;;1.48;;
43118;SDS011;28729;49.838;8.650;2023-07-30T15:23:52;4.78;;;1.20;;
43118;SDS011;28729;49.838;8.650;2023-07-30T15:27:54;3.87;;;1.60;;
43118;SDS011;28729;49.838;8.650;2023-07-30T15:31:56;5.35;;;1.48;;
43118;SDS011;28729;49.838;8.650;2023-07-30T15:35:58;4.65;;;1.33;;
43118;SDS011;28729;49.838;8.650;2023-07-30T15:40:00;5.50;;;1.37;;
43118;SDS011;28729;49.838;8.650;2023-07-30T15:44:05;4.43;;;1.50;;
43118;SDS011;28729;49.838;8.650;2023-07-30T15:48:07;6.13;;;1.63;;
43118;SDS011;28729;49.838;8.650;2023-07-30T15:52:09;4.28;;;1.35;;
43118;SDS011;28729;49.838;8.650;2023-07-30T15:56:10;5.27;;;1.30;;
43118;SDS011;28729;49.838;8.650;2023-07-30T16:00:13;6.57;;;1.52;;
43118;SDS011;28729;49.838;8.650;2023-07-30T16:04:18;5.63;;;1.58;;
43118;SDS011;28729;49.838;8.650;2023-07-30T16:08:19;6.07;;;1.47;;
43118;SDS011;28729;49.838;8.650;2023-07-30T16:12:21;7.67;;;1.73;;
43118;SDS011;28729;49.838;8.650;2023-07-30T16:16:23;7.72;;;2.08;;
43118;SDS011;28729;49.838;8.650;2023-07-30T16:20:26;6.10;;;1.50;;
43118;SDS011;28729;49.838;8.650;2023-07-30T16:24:28;3.45;;;0.90;;
43118;SDS011;28729;49.838;8.650;2023-07-30T16:28:30;3.47;;;1.03;;
43118;SDS011;28729;49.838;8.650;2023-07-30T16:32:32;5.05;;;1.38;;
43118;SDS011;28729;49.838;8.650;2023-07-30T16:36:34;5.60;;;1.37;;
43118;SDS011;28729;49.838;8.650;2023-07-30T16:40:36;7.38;;;1.38;;
43118;SDS011;28729;49.838;8.650;2023-07-30T16:44:38;4.50;;;1.83;;
43118;SDS011;28729;49.838;8.650;2023-07-30T16:48:40;8.32;;;1.40;;
43118;SDS011;28729;49.838;8.650;2023-07-30T16:52:41;5.60;;;1.30;;
43118;SDS011;28729;49.838;8.650;2023-07-30T16:56:43;4.23;;;1.27;;
43118;SDS011;28729;49.838;8.650;2023-07-30T17:00:46;5.90;;;1.23;;
43118;SDS011;28729;49.838;8.650;2023-07-30T17:04:47;2.53;;;1.27;;
43118;SDS011;28729;49.838;8.650;2023-07-30T17:08:49;4.97;;;1.17;;
43118;SDS011;28729;49.838;8.650;2023-07-30T17:12:51;4.53;;;1.27;;
43118;SDS011;28729;49.838;8.650;2023-07-30T17:16:53;6.05;;;1.30;;
43118;SDS011;28729;49.838;8.650;2023-07-30T17:20:55;5.00;;;1.25;;
43118;SDS011;28729;49.838;8.650;2023-07-30T17:25:02;8.25;;;1.90;;
43118;SDS011;28729;49.838;8.650;2023-07-30T17:29:04;5.32;;;1.42;;
43118;SDS011;28729;49.838;8.650;2023-07-30T17:33:06;3.47;;;1.20;;
43118;SDS011;28729;49.838;8.650;2023-07-30T17:37:08;7.93;;;1.40;;
43118;SDS011;28729;49.838;8.650;2023-07-30T17:41:10;3.80;;;1.10;;
43118;SDS011;28729;49.838;8.650;2023-07-30T17:45:12;3.07;;;1.17;;
43118;SDS011;28729;49.838;8.650;2023-07-30T17:49:14;6.47;;;1.27;;
43118;SDS011;28729;49.838;8.650;2023-07-30T17:53:15;7.77;;;1.23;;
43118;SDS011;28729;49.838;8.650;2023-07-30T17:57:17;3.55;;;1.13;;
43118;SDS011;28729;49.838;8.650;2023-07-30T18:01:19;5.73;;;1.33;;
43118;SDS011;28729;49.838;8.650;2023-07-30T18:05:21;6.47;;;1.50;;
43118;SDS011;28729;49.838;8.650;2023-07-30T18:09:38;4.88;;;1.13;;
43118;SDS011;28729;49.838;8.650;2023-07-30T18:13:39;5.33;;;1.27;;
43118;SDS011;28729;49.838;8.650;2023-07-30T18:17:42;5.53;;;1.90;;
43118;SDS011;28729;49.838;8.650;2023-07-30T18:21:44;8.77;;;1.33;;
43118;SDS011;28729;49.838;8.650;2023-07-30T18:25:46;5.53;;;1.60;;
43118;SDS011;28729;49.838;8.650;2023-07-30T18:29:48;4.10;;;1.30;;
43118;SDS011;28729;49.838;8.650;2023-07-30T18:33:50;3.22;;;1.50;;
43118;SDS011;28729;49.838;8.650;2023-07-30T18:37:51;8.57;;;2.50;;
43118;SDS011;28729;49.838;8.650;2023-07-30T18:41:53;4.93;;;1.43;;
43118;SDS011;28729;49.838;8.650;2023-07-30T18:45:56;6.63;;;1.73;;
43118;SDS011;28729;49.838;8.650;2023-07-30T18:49:57;5.13;;;1.35;;
43118;SDS011;28729;49.838;8.650;2023-07-30T18:53:59;7.70;;;1.45;;
43118;SDS011;28729;49.838;8.650;2023-07-30T18:58:01;4.10;;;1.30;;
43118;SDS011;28729;49.838;8.650;2023-07-30T19:02:03;7.45;;;1.33;;
43118;SDS011;28729;49.838;8.650;2023-07-30T19:06:06;5.68;;;1.50;;
43118;SDS011;28729;49.838;8.650;2023-07-30T19:10:07;4.40;;;1.35;;
43118;SDS011;28729;49.838;8.650;2023-07-30T19:14:09;6.33;;;2.17;;
43118;SDS011;28729;49.838;8.650;2023-07-30T19:18:11;3.75;;;1.35;;
43118;SDS011;28729;49.838;8.650;2023-07-30T19:22:13;4.68;;;1.60;;
43118;SDS011;28729;49.838;8.650;2023-07-30T19:26:15;4.13;;;1.37;;
43118;SDS011;28729;49.838;8.650;2023-07-30T19:30:17;9.40;;;1.58;;
43118;SDS011;28729;49.838;8.650;2023-07-30T19:34:18;5.93;;;1.40;;
43118;SDS011;28729;49.838;8.650;2023-07-30T19:38:20;7.20;;;1.70;;
43118;SDS011;28729;49.838;8.650;2023-07-30T19:42:26;2.85;;;1.17;;
43118;SDS011;28729;49.838;8.650;2023-07-30T19:46:27;4.18;;;1.17;;
43118;SDS011;28729;49.838;8.650;2023-07-30T19:50:29;5.20;;;1.45;;
43118;SDS011;28729;49.838;8.650;2023-07-30T19:54:40;5.20;;;1.08;;
43118;SDS011;28729;49.838;8.650;2023-07-30T19:58:42;2.83;;;1.17;;
43118;SDS011;28729;49.838;8.650;2023-07-30T20:02:43;7.18;;;2.63;;
43118;SDS011;28729;49.838;8.650;2023-07-30T20:06:45;5.63;;;1.48;;
43118;SDS011;28729;49.838;8.650;2023-07-30T20:10:48;7.57;;;1.75;;
43118;SDS011;28729;49.838;8.650;2023-07-30T20:14:53;3.42;;;1.38;;
43118;SDS011;28729;49.838;8.650;2023-07-30T20:18:55;4.80;;;1.52;;
43118;SDS011;28729;49.838;8.650;2023-07-30T20:22:57;5.32;;;1.60;;
43118;SDS011;28729;49.838;8.650;2023-07-30T20:26:59;9.13;;;1.90;;
43118;SDS011;28729;49.838;8.650;2023-07-30T20:31:02;4.95;;;1.38;;
43118;SDS011;28729;49.838;8.650;2023-07-30T20:35:04;5.95;;;1.65;;
43118;SDS011;28729;49.838;8.650;2023-07-30T20:39:06;5.32;;;1.83;;
43118;SDS011;28729;49.838;8.650;2023-07-30T20:43:08;6.40;;;1.30;;
43118;SDS011;28729;49.838;8.650;2023-07-30T20:47:10;6.82;;;1.83;;
43118;SDS011;28729;49.838;8.650;2023-07-30T20:51:12;4.18;;;1.50;;
43118;SDS011;28729;49.838;8.650;2023-07-30T20:55:16;5.35;;;1.70;;
43118;SDS011;28729;49.838;8.650;2023-07-30T20:59:19;6.68;;;2.05;;
43118;SDS011;28729;49.838;8.650;2023-07-30T21:03:21;3.78;;;1.80;;
43118;SDS011;28729;49.838;8.650;2023-07-30T21:07:23;8.57;;;1.70;;
43118;SDS011;28729;49.838;8.650;2023-07-30T21:11:25;3.75;;;1.60;;
43118;SDS011;28729;49.838;8.650;2023-07-30T21:15:27;13.13;;;1.85;;
43118;SDS011;28729;49.838;8.650;2023-07-30T21:19:29;9.05;;;1.73;;
43118;SDS011;28729;49.838;8.650;2023-07-30T21:23:31;5.90;;;1.48;;
43118;SDS011;28729;49.838;8.650;2023-07-30T21:27:33;5.72;;;1.70;;
43118;SDS011;28729;49.838;8.650;2023-07-30T21:31:35;8.02;;;2.00;;
43118;SDS011;28729;49.838;8.650;2023-07-30T21:35:36;7.68;;;1.90;;
43118;SDS011;28729;49.838;8.650;2023-07-30T21:39:38;6.43;;;1.88;;
43118;SDS011;28729;49.838;8.650;2023-07-30T21:43:40;4.72;;;1.90;;
43118;SDS011;28729;49.838;8.650;2023-07-30T21:47:42;5.85;;;1.65;;
43118;SDS011;28729;49.838;8.650;2023-07-30T21:51:43;5.55;;;1.63;;
43118;SDS011;28729;49.838;8.650;2023-07-30T21:55:45;4.72;;;1.45;;
43118;SDS011;28729;49.838;8.650;2023-07-30T21:59:48;6.30;;;1.67;;
43118;SDS011;28729;49.838;8.650;2023-07-30T22:03:51;6.20;;;1.92;;
43118;SDS011;28729;49.838;8.650;2023-07-30T22:11:56;7.13;;;1.67;;
43118;SDS011;28729;49.838;8.650;2023-07-30T22:15:59;6.38;;;1.98;;
43118;SDS011;28729;49.838;8.650;2023-07-30T22:20:01;5.28;;;1.92;;
43118;SDS011;28729;49.838;8.650;2023-07-30T22:24:03;5.78;;;1.90;;
43118;SDS011;28729;49.838;8.650;2023-07-30T22:28:05;7.80;;;2.10;;
43118;SDS011;28729;49.838;8.650;2023-07-30T22:32:10;4.43;;;1.70;;
43118;SDS011;28729;49.838;8.650;2023-07-30T22:36:12;4.20;;;1.83;;
43118;SDS011;28729;49.838;8.650;2023-07-30T22:40:14;5.10;;;2.08;;
43118;SDS011;28729;49.838;8.650;2023-07-30T22:44:16;4.97;;;1.67;;
43118;SDS011;28729;49.838;8.650;2023-07-30T22:48:18;6.78;;;2.15;;
43118;SDS011;28729;49.838;8.650;2023-07-30T22:52:19;6.32;;;2.00;;
43118;SDS011;28729;49.838;8.650;2023-07-30T22:56:21;4.53;;;2.13;;
43118;SDS011;28729;49.838;8.650;2023-07-30T23:00:23;4.17;;;1.50;;
43118;SDS011;28729;49.838;8.650;2023-07-30T23:04:25;6.25;;;2.00;;
43118;SDS011;28729;49.838;8.650;2023-07-30T23:08:27;6.10;;;1.53;;
43118;SDS011;28729;49.838;8.650;2023-07-30T23:12:29;8.40;;;1.97;;
43118;SDS011;28729;49.838;8.650;2023-07-30T23:16:31;5.25;;;1.80;;
43118;SDS011;28729;49.838;8.650;2023-07-30T23:20:32;8.75;;;2.30;;
43118;SDS011;28729;49.838;8.650;2023-07-30T23:24:34;6.43;;;1.60;;
43118;SDS011;28729;49.838;8.650;2023-07-30T23:28:36;10.97;;;2.17;;
43118;SDS011;28729;49.838;8.650;2023-07-30T23:32:38;3.33;;;1.60;;
43118;SDS011;28729;49.838;8.650;2023-07-30T23:36:40;10.30;;;2.03;;
43118;SDS011;28729;49.838;8.650;2023-07-30T23:40:42;6.47;;;2.72;;
43118;SDS011;28729;49.838;8.650;2023-07-30T23:44:44;7.78;;;1.70;;
43118;SDS011;28729;49.838;8.650;2023-07-30T23:48:47;6.88;;;2.08;;
43118;SDS011;28729;49.838;8.650;2023-07-30T23:52:49;6.13;;;1.67;;
43118;SDS011;28729;49.838;8.650;2023-07-30T23:56:50;5.80;;;1.77;;
